sensor_id;sensor_type;location;lat;lon;timestamp;P1;durP1;ratioP1;P2;durP2;ratioP2
71637;SDS011;59485;43.542;-5.676;2023-05-08T00:01:08;11.43;;;3.13;;
71637;SDS011;59485;43.542;-5.676;2023-05-08T00:03:34;14.30;;;4.00;;
71637;SDS011;59485;43.542;-5.676;2023-05-08T00:06:02;10.17;;;3.40;;
71637;SDS011;59485;43.542;-5.676;2023-05-08T00:08:29;11.68;;;3.78;;
71637;SDS011;59485;43.542;-5.676;2023-05-08T00:10:55;10.77;;;3.93;;
71637;SDS011;59485;43.542;-5.676;2023-05-08T00:13:20;11.80;;;3.28;;
71637;SDS011;59485;43.542;-5.676;2023-05-08T00:15:46;7.63;;;3.47;;
71637;SDS011;59485;43.542;-5.676;2023-05-08T00:18:11;9.20;;;3.33;;
71637;SDS011;59485;43.542;-5.676;2023-05-08T00:20:37;8.98;;;3.60;;
71637;SDS011;59485;43.542;-5.676;2023-05-08T00:23:02;7.97;;;3.03;;
71637;SDS011;59485;43.542;-5.676;2023-05-08T00:25:28;10.60;;;3.13;;
71637;SDS011;59485;43.542;-5.676;2023-05-08T00:27:55;9.00;;;2.53;;
71637;SDS011;59485;43.542;-5.676;2023-05-08T00:30:21;10.57;;;2.72;;
71637;SDS011;59485;43.542;-5.676;2023-05-08T00:32:47;8.57;;;2.80;;
71637;SDS011;59485;43.542;-5.676;2023-05-08T00:35:12;10.43;;;2.50;;
71637;SDS011;59485;43.542;-5.676;2023-05-08T00:37:38;6.87;;;2.93;;
71637;SDS011;59485;43.542;-5.676;2023-05-08T00:40:06;7.50;;;2.63;;
71637;SDS011;59485;43.542;-5.676;2023-05-08T00:42:35;7.35;;;2.28;;
71637;SDS011;59485;43.542;-5.676;2023-05-08T00:45:02;7.90;;;2.22;;
71637;SDS011;59485;43.542;-5.676;2023-05-08T00:47:28;7.85;;;2.00;;
71637;SDS011;59485;43.542;-5.676;2023-05-08T00:49:55;9.90;;;2.83;;
71637;SDS011;59485;43.542;-5.676;2023-05-08T00:52:22;9.50;;;2.50;;
71637;SDS011;59485;43.542;-5.676;2023-05-08T00:54:49;10.68;;;3.35;;
71637;SDS011;59485;43.542;-5.676;2023-05-08T00:57:15;18.45;;;8.40;;
71637;SDS011;59485;43.542;-5.676;2023-05-08T00:59:40;26.73;;;14.70;;
71637;SDS011;59485;43.542;-5.676;2023-05-08T01:02:07;30.40;;;17.00;;
71637;SDS011;59485;43.542;-5.676;2023-05-08T01:04:34;36.67;;;17.63;;
71637;SDS011;59485;43.542;-5.676;2023-05-08T01:07:01;33.00;;;17.23;;
71637;SDS011;59485;43.542;-5.676;2023-05-08T01:09:27;30.30;;;15.40;;
71637;SDS011;59485;43.542;-5.676;2023-05-08T01:28:52;20.60;;;9.93;;
71637;SDS011;59485;43.542;-5.676;2023-05-08T01:34:23;29.25;;;11.18;;
71637;SDS011;59485;43.542;-5.676;2023-05-08T01:37:06;23.23;;;12.60;;
71637;SDS011;59485;43.542;-5.676;2023-05-08T01:42:20;16.48;;;8.15;;
71637;SDS011;59485;43.542;-5.676;2023-05-08T01:44:55;15.27;;;6.60;;
71637;SDS011;59485;43.542;-5.676;2023-05-08T01:47:26;15.20;;;6.38;;
71637;SDS011;59485;43.542;-5.676;2023-05-08T01:50:13;14.48;;;6.13;;
71637;SDS011;59485;43.542;-5.676;2023-05-08T01:52:44;14.30;;;5.20;;
71637;SDS011;59485;43.542;-5.676;2023-05-08T01:55:23;14.18;;;5.65;;
71637;SDS011;59485;43.542;-5.676;2023-05-08T01:57:52;13.43;;;7.73;;
71637;SDS011;59485;43.542;-5.676;2023-05-08T02:00:20;13.88;;;6.78;;
71637;SDS011;59485;43.542;-5.676;2023-05-08T02:02:48;15.05;;;5.65;;
71637;SDS011;59485;43.542;-5.676;2023-05-08T02:05:16;16.38;;;6.57;;
71637;SDS011;59485;43.542;-5.676;2023-05-08T02:07:45;14.88;;;7.88;;
71637;SDS011;59485;43.542;-5.676;2023-05-08T02:10:13;16.20;;;7.73;;
71637;SDS011;59485;43.542;-5.676;2023-05-08T02:12:40;17.42;;;8.82;;
71637;SDS011;59485;43.542;-5.676;2023-05-08T02:15:08;11.32;;;6.93;;
71637;SDS011;59485;43.542;-5.676;2023-05-08T02:17:37;15.90;;;6.53;;
71637;SDS011;59485;43.542;-5.676;2023-05-08T02:20:05;14.85;;;7.47;;
71637;SDS011;59485;43.542;-5.676;2023-05-08T02:22:38;15.40;;;5.73;;
71637;SDS011;59485;43.542;-5.676;2023-05-08T02:25:15;12.27;;;6.95;;
71637;SDS011;59485;43.542;-5.676;2023-05-08T02:27:42;13.02;;;7.55;;
71637;SDS011;59485;43.542;-5.676;2023-05-08T02:30:14;14.35;;;5.20;;
71637;SDS011;59485;43.542;-5.676;2023-05-08T02:32:41;14.20;;;4.88;;
71637;SDS011;59485;43.542;-5.676;2023-05-08T02:35:09;13.00;;;5.23;;
71637;SDS011;59485;43.542;-5.676;2023-05-08T02:37:39;15.82;;;4.82;;
71637;SDS011;59485;43.542;-5.676;2023-05-08T02:40:09;7.90;;;3.90;;
71637;SDS011;59485;43.542;-5.676;2023-05-08T02:42:36;10.15;;;3.72;;
71637;SDS011;59485;43.542;-5.676;2023-05-08T02:45:03;10.23;;;3.50;;
71637;SDS011;59485;43.542;-5.676;2023-05-08T02:47:33;12.20;;;3.87;;
71637;SDS011;59485;43.542;-5.676;2023-05-08T02:50:04;11.90;;;3.45;;
71637;SDS011;59485;43.542;-5.676;2023-05-08T02:52:51;10.15;;;4.00;;
71637;SDS011;59485;43.542;-5.676;2023-05-08T02:55:22;11.98;;;3.40;;
71637;SDS011;59485;43.542;-5.676;2023-05-08T03:01:01;9.57;;;3.73;;
71637;SDS011;59485;43.542;-5.676;2023-05-08T03:03:36;10.85;;;3.42;;
71637;SDS011;59485;43.542;-5.676;2023-05-08T03:06:10;11.38;;;3.20;;
71637;SDS011;59485;43.542;-5.676;2023-05-08T03:08:38;9.88;;;4.30;;
71637;SDS011;59485;43.542;-5.676;2023-05-08T03:11:07;9.45;;;3.75;;
71637;SDS011;59485;43.542;-5.676;2023-05-08T03:13:37;10.33;;;3.37;;
71637;SDS011;59485;43.542;-5.676;2023-05-08T03:16:04;10.05;;;3.13;;
71637;SDS011;59485;43.542;-5.676;2023-05-08T03:18:36;11.07;;;3.80;;
71637;SDS011;59485;43.542;-5.676;2023-05-08T03:21:16;11.63;;;3.47;;
71637;SDS011;59485;43.542;-5.676;2023-05-08T03:23:43;11.13;;;3.60;;
71637;SDS011;59485;43.542;-5.676;2023-05-08T03:26:12;9.93;;;3.07;;
71637;SDS011;59485;43.542;-5.676;2023-05-08T03:28:43;10.25;;;3.22;;
71637;SDS011;59485;43.542;-5.676;2023-05-08T03:31:14;13.32;;;3.13;;
71637;SDS011;59485;43.542;-5.676;2023-05-08T03:33:42;11.15;;;3.58;;
71637;SDS011;59485;43.542;-5.676;2023-05-08T03:36:09;7.57;;;3.67;;
71637;SDS011;59485;43.542;-5.676;2023-05-08T03:38:35;10.70;;;3.63;;
71637;SDS011;59485;43.542;-5.676;2023-05-08T03:41:01;9.35;;;3.22;;
71637;SDS011;59485;43.542;-5.676;2023-05-08T03:43:27;8.93;;;2.70;;
71637;SDS011;59485;43.542;-5.676;2023-05-08T03:45:55;10.23;;;3.15;;
71637;SDS011;59485;43.542;-5.676;2023-05-08T03:48:21;11.32;;;3.67;;
71637;SDS011;59485;43.542;-5.676;2023-05-08T03:50:48;9.98;;;3.65;;
71637;SDS011;59485;43.542;-5.676;2023-05-08T03:53:14;10.47;;;4.30;;
71637;SDS011;59485;43.542;-5.676;2023-05-08T03:55:40;10.53;;;3.53;;
71637;SDS011;59485;43.542;-5.676;2023-05-08T04:03:20;12.05;;;4.75;;
71637;SDS011;59485;43.542;-5.676;2023-05-08T04:05:50;11.13;;;5.40;;
71637;SDS011;59485;43.542;-5.676;2023-05-08T04:08:26;11.50;;;6.10;;
71637;SDS011;59485;43.542;-5.676;2023-05-08T04:13:48;14.00;;;7.15;;
71637;SDS011;59485;43.542;-5.676;2023-05-08T04:16:25;13.57;;;6.53;;
71637;SDS011;59485;43.542;-5.676;2023-05-08T04:19:01;15.55;;;6.50;;
71637;SDS011;59485;43.542;-5.676;2023-05-08T04:21:32;15.53;;;6.00;;
71637;SDS011;59485;43.542;-5.676;2023-05-08T04:23:59;12.65;;;6.32;;
71637;SDS011;59485;43.542;-5.676;2023-05-08T04:26:27;15.10;;;6.40;;
71637;SDS011;59485;43.542;-5.676;2023-05-08T04:28:54;17.27;;;6.00;;
71637;SDS011;59485;43.542;-5.676;2023-05-08T04:31:20;15.23;;;6.20;;
71637;SDS011;59485;43.542;-5.676;2023-05-08T04:33:46;16.33;;;5.73;;
71637;SDS011;59485;43.542;-5.676;2023-05-08T04:36:12;18.20;;;6.40;;
71637;SDS011;59485;43.542;-5.676;2023-05-08T04:38:38;15.35;;;5.75;;
71637;SDS011;59485;43.542;-5.676;2023-05-08T04:41:07;11.30;;;5.40;;
71637;SDS011;59485;43.542;-5.676;2023-05-08T04:43:33;14.55;;;5.20;;
71637;SDS011;59485;43.542;-5.676;2023-05-08T04:45:59;9.93;;;4.93;;
71637;SDS011;59485;43.542;-5.676;2023-05-08T04:48:25;15.00;;;5.00;;
71637;SDS011;59485;43.542;-5.676;2023-05-08T04:50:51;16.73;;;6.10;;
71637;SDS011;59485;43.542;-5.676;2023-05-08T04:53:16;11.40;;;4.67;;
71637;SDS011;59485;43.542;-5.676;2023-05-08T04:55:42;13.82;;;5.30;;
71637;SDS011;59485;43.542;-5.676;2023-05-08T04:58:09;12.30;;;5.07;;
71637;SDS011;59485;43.542;-5.676;2023-05-08T05:00:34;18.00;;;6.70;;
71637;SDS011;59485;43.542;-5.676;2023-05-08T05:03:00;16.10;;;7.73;;
71637;SDS011;59485;43.542;-5.676;2023-05-08T05:05:26;20.05;;;11.35;;
71637;SDS011;59485;43.542;-5.676;2023-05-08T05:07:51;24.03;;;13.07;;
71637;SDS011;59485;43.542;-5.676;2023-05-08T05:10:17;29.30;;;16.53;;
71637;SDS011;59485;43.542;-5.676;2023-05-08T05:12:42;33.33;;;21.25;;
71637;SDS011;59485;43.542;-5.676;2023-05-08T05:15:08;33.53;;;22.17;;
71637;SDS011;59485;43.542;-5.676;2023-05-08T05:17:34;36.70;;;23.13;;
71637;SDS011;59485;43.542;-5.676;2023-05-08T05:19:59;29.97;;;21.10;;
71637;SDS011;59485;43.542;-5.676;2023-05-08T05:22:25;31.27;;;21.23;;
71637;SDS011;59485;43.542;-5.676;2023-05-08T05:24:51;34.10;;;21.10;;
71637;SDS011;59485;43.542;-5.676;2023-05-08T05:27:17;34.33;;;21.63;;
71637;SDS011;59485;43.542;-5.676;2023-05-08T05:29:42;33.33;;;21.10;;
71637;SDS011;59485;43.542;-5.676;2023-05-08T05:32:08;37.10;;;24.33;;
71637;SDS011;59485;43.542;-5.676;2023-05-08T05:34:35;40.83;;;23.58;;
71637;SDS011;59485;43.542;-5.676;2023-05-08T05:37:01;37.93;;;23.73;;
71637;SDS011;59485;43.542;-5.676;2023-05-08T05:39:26;43.15;;;25.63;;
71637;SDS011;59485;43.542;-5.676;2023-05-08T05:41:52;39.03;;;26.40;;
71637;SDS011;59485;43.542;-5.676;2023-05-08T05:44:17;37.77;;;21.43;;
71637;SDS011;59485;43.542;-5.676;2023-05-08T05:46:43;32.85;;;19.85;;
71637;SDS011;59485;43.542;-5.676;2023-05-08T05:49:08;30.67;;;17.77;;
71637;SDS011;59485;43.542;-5.676;2023-05-08T05:51:34;34.83;;;17.77;;
71637;SDS011;59485;43.542;-5.676;2023-05-08T05:53:59;33.30;;;17.50;;
71637;SDS011;59485;43.542;-5.676;2023-05-08T05:56:24;44.83;;;19.23;;
71637;SDS011;59485;43.542;-5.676;2023-05-08T05:58:50;45.37;;;19.00;;
71637;SDS011;59485;43.542;-5.676;2023-05-08T06:01:16;32.83;;;17.05;;
71637;SDS011;59485;43.542;-5.676;2023-05-08T06:03:41;29.40;;;14.50;;
71637;SDS011;59485;43.542;-5.676;2023-05-08T06:06:07;37.55;;;14.40;;
71637;SDS011;59485;43.542;-5.676;2023-05-08T06:08:34;32.63;;;14.10;;
71637;SDS011;59485;43.542;-5.676;2023-05-08T06:10:59;27.60;;;13.23;;
71637;SDS011;59485;43.542;-5.676;2023-05-08T06:13:25;25.57;;;12.37;;
71637;SDS011;59485;43.542;-5.676;2023-05-08T06:15:52;27.75;;;12.57;;
71637;SDS011;59485;43.542;-5.676;2023-05-08T06:18:20;41.10;;;15.02;;
71637;SDS011;59485;43.542;-5.676;2023-05-08T06:20:46;34.23;;;16.50;;
71637;SDS011;59485;43.542;-5.676;2023-05-08T06:23:11;33.43;;;15.27;;
71637;SDS011;59485;43.542;-5.676;2023-05-08T06:25:37;33.67;;;15.25;;
71637;SDS011;59485;43.542;-5.676;2023-05-08T06:28:03;30.90;;;15.23;;
71637;SDS011;59485;43.542;-5.676;2023-05-08T06:30:30;34.58;;;14.68;;
71637;SDS011;59485;43.542;-5.676;2023-05-08T06:32:56;26.95;;;13.45;;
71637;SDS011;59485;43.542;-5.676;2023-05-08T06:35:21;25.33;;;12.30;;
71637;SDS011;59485;43.542;-5.676;2023-05-08T06:37:47;31.07;;;14.67;;
71637;SDS011;59485;43.542;-5.676;2023-05-08T06:40:12;30.92;;;15.75;;
71637;SDS011;59485;43.542;-5.676;2023-05-08T06:42:39;36.50;;;19.13;;
71637;SDS011;59485;43.542;-5.676;2023-05-08T06:45:05;38.47;;;20.05;;
71637;SDS011;59485;43.542;-5.676;2023-05-08T06:47:32;35.35;;;21.95;;
71637;SDS011;59485;43.542;-5.676;2023-05-08T06:49:57;47.27;;;26.43;;
71637;SDS011;59485;43.542;-5.676;2023-05-08T06:52:24;48.63;;;27.67;;
71637;SDS011;59485;43.542;-5.676;2023-05-08T06:54:49;43.03;;;26.33;;
71637;SDS011;59485;43.542;-5.676;2023-05-08T06:57:15;44.83;;;26.98;;
71637;SDS011;59485;43.542;-5.676;2023-05-08T06:59:41;41.42;;;24.13;;
71637;SDS011;59485;43.542;-5.676;2023-05-08T07:02:07;32.80;;;18.77;;
71637;SDS011;59485;43.542;-5.676;2023-05-08T07:04:34;31.40;;;18.90;;
71637;SDS011;59485;43.542;-5.676;2023-05-08T07:07:00;29.92;;;16.05;;
71637;SDS011;59485;43.542;-5.676;2023-05-08T07:09:26;28.87;;;15.43;;
71637;SDS011;59485;43.542;-5.676;2023-05-08T07:11:51;22.42;;;14.40;;
71637;SDS011;59485;43.542;-5.676;2023-05-08T07:14:17;22.27;;;12.87;;
71637;SDS011;59485;43.542;-5.676;2023-05-08T07:16:42;22.70;;;10.67;;
71637;SDS011;59485;43.542;-5.676;2023-05-08T07:19:08;22.42;;;9.82;;
71637;SDS011;59485;43.542;-5.676;2023-05-08T07:21:33;19.33;;;8.13;;
71637;SDS011;59485;43.542;-5.676;2023-05-08T07:23:59;16.83;;;7.77;;
71637;SDS011;59485;43.542;-5.676;2023-05-08T07:26:24;16.73;;;7.60;;
71637;SDS011;59485;43.542;-5.676;2023-05-08T07:28:50;21.40;;;7.73;;
71637;SDS011;59485;43.542;-5.676;2023-05-08T07:31:18;18.48;;;7.32;;
71637;SDS011;59485;43.542;-5.676;2023-05-08T07:33:44;16.08;;;6.97;;
71637;SDS011;59485;43.542;-5.676;2023-05-08T07:36:11;19.45;;;6.85;;
71637;SDS011;59485;43.542;-5.676;2023-05-08T07:38:36;26.87;;;6.67;;
71637;SDS011;59485;43.542;-5.676;2023-05-08T07:41:02;19.52;;;6.60;;
71637;SDS011;59485;43.542;-5.676;2023-05-08T07:43:29;13.50;;;6.03;;
71637;SDS011;59485;43.542;-5.676;2023-05-08T07:45:55;14.37;;;6.37;;
71637;SDS011;59485;43.542;-5.676;2023-05-08T07:48:21;12.00;;;6.07;;
71637;SDS011;59485;43.542;-5.676;2023-05-08T07:50:48;14.60;;;6.77;;
71637;SDS011;59485;43.542;-5.676;2023-05-08T07:53:14;15.50;;;5.95;;
71637;SDS011;59485;43.542;-5.676;2023-05-08T07:55:39;21.63;;;6.55;;
71637;SDS011;59485;43.542;-5.676;2023-05-08T07:58:05;14.13;;;5.87;;
71637;SDS011;59485;43.542;-5.676;2023-05-08T08:00:30;20.60;;;7.00;;
71637;SDS011;59485;43.542;-5.676;2023-05-08T08:02:56;15.73;;;6.88;;
71637;SDS011;59485;43.542;-5.676;2023-05-08T08:05:21;17.77;;;7.50;;
71637;SDS011;59485;43.542;-5.676;2023-05-08T08:07:47;20.00;;;9.70;;
71637;SDS011;59485;43.542;-5.676;2023-05-08T08:10:13;22.80;;;9.05;;
71637;SDS011;59485;43.542;-5.676;2023-05-08T08:12:38;18.93;;;9.10;;
71637;SDS011;59485;43.542;-5.676;2023-05-08T08:15:04;19.50;;;8.27;;
71637;SDS011;59485;43.542;-5.676;2023-05-08T08:17:33;24.98;;;11.00;;
71637;SDS011;59485;43.542;-5.676;2023-05-08T08:19:58;23.45;;;11.45;;
71637;SDS011;59485;43.542;-5.676;2023-05-08T08:22:24;28.53;;;14.27;;
71637;SDS011;59485;43.542;-5.676;2023-05-08T08:24:50;27.02;;;13.77;;
71637;SDS011;59485;43.542;-5.676;2023-05-08T08:27:18;22.45;;;11.63;;
71637;SDS011;59485;43.542;-5.676;2023-05-08T08:29:44;22.57;;;12.23;;
71637;SDS011;59485;43.542;-5.676;2023-05-08T08:32:09;18.57;;;9.97;;
71637;SDS011;59485;43.542;-5.676;2023-05-08T08:34:35;24.02;;;10.77;;
71637;SDS011;59485;43.542;-5.676;2023-05-08T08:37:01;29.80;;;12.53;;
71637;SDS011;59485;43.542;-5.676;2023-05-08T08:39:26;25.50;;;10.60;;
71637;SDS011;59485;43.542;-5.676;2023-05-08T08:41:52;29.30;;;12.40;;
71637;SDS011;59485;43.542;-5.676;2023-05-08T08:44:17;23.03;;;10.07;;
71637;SDS011;59485;43.542;-5.676;2023-05-08T08:46:43;28.33;;;9.85;;
71637;SDS011;59485;43.542;-5.676;2023-05-08T08:49:16;24.47;;;12.40;;
71637;SDS011;59485;43.542;-5.676;2023-05-08T08:51:50;16.67;;;10.00;;
71637;SDS011;59485;43.542;-5.676;2023-05-08T08:54:20;15.70;;;8.52;;
71637;SDS011;59485;43.542;-5.676;2023-05-08T08:56:49;23.80;;;9.15;;
71637;SDS011;59485;43.542;-5.676;2023-05-08T08:59:16;22.63;;;10.50;;
71637;SDS011;59485;43.542;-5.676;2023-05-08T09:01:49;23.17;;;11.20;;
71637;SDS011;59485;43.542;-5.676;2023-05-08T09:04:21;25.25;;;10.18;;
71637;SDS011;59485;43.542;-5.676;2023-05-08T09:06:51;21.17;;;11.32;;
71637;SDS011;59485;43.542;-5.676;2023-05-08T09:09:17;19.77;;;10.45;;
71637;SDS011;59485;43.542;-5.676;2023-05-08T09:11:43;17.23;;;9.00;;
71637;SDS011;59485;43.542;-5.676;2023-05-08T09:14:10;25.07;;;9.30;;
71637;SDS011;59485;43.542;-5.676;2023-05-08T09:16:36;24.63;;;8.60;;
71637;SDS011;59485;43.542;-5.676;2023-05-08T09:19:02;18.27;;;8.10;;
71637;SDS011;59485;43.542;-5.676;2023-05-08T09:21:27;19.20;;;8.87;;
71637;SDS011;59485;43.542;-5.676;2023-05-08T09:23:57;24.05;;;9.48;;
71637;SDS011;59485;43.542;-5.676;2023-05-08T09:29:08;18.60;;;7.73;;
71637;SDS011;59485;43.542;-5.676;2023-05-08T09:31:35;18.45;;;7.38;;
71637;SDS011;59485;43.542;-5.676;2023-05-08T09:34:04;20.48;;;8.68;;
71637;SDS011;59485;43.542;-5.676;2023-05-08T09:36:34;21.73;;;8.45;;
71637;SDS011;59485;43.542;-5.676;2023-05-08T09:39:00;23.95;;;9.40;;
71637;SDS011;59485;43.542;-5.676;2023-05-08T09:41:27;21.10;;;8.97;;
71637;SDS011;59485;43.542;-5.676;2023-05-08T09:43:59;17.25;;;6.95;;
71637;SDS011;59485;43.542;-5.676;2023-05-08T09:46:29;15.40;;;5.80;;
71637;SDS011;59485;43.542;-5.676;2023-05-08T09:48:56;17.27;;;7.20;;
71637;SDS011;59485;43.542;-5.676;2023-05-08T09:51:24;19.85;;;6.88;;
71637;SDS011;59485;43.542;-5.676;2023-05-08T09:53:52;13.60;;;7.00;;
71637;SDS011;59485;43.542;-5.676;2023-05-08T09:56:29;14.45;;;5.55;;
71637;SDS011;59485;43.542;-5.676;2023-05-08T09:58:59;18.70;;;6.63;;
71637;SDS011;59485;43.542;-5.676;2023-05-08T10:01:30;17.07;;;6.27;;
71637;SDS011;59485;43.542;-5.676;2023-05-08T10:03:59;19.55;;;6.97;;
71637;SDS011;59485;43.542;-5.676;2023-05-08T10:06:25;18.33;;;6.97;;
71637;SDS011;59485;43.542;-5.676;2023-05-08T10:09:05;15.95;;;5.88;;
71637;SDS011;59485;43.542;-5.676;2023-05-08T10:11:40;24.77;;;8.40;;
71637;SDS011;59485;43.542;-5.676;2023-05-08T10:14:07;19.17;;;7.18;;
71637;SDS011;59485;43.542;-5.676;2023-05-08T10:16:51;16.92;;;6.85;;
71637;SDS011;59485;43.542;-5.676;2023-05-08T10:19:19;13.00;;;4.93;;
71637;SDS011;59485;43.542;-5.676;2023-05-08T10:21:46;14.73;;;5.40;;
71637;SDS011;59485;43.542;-5.676;2023-05-08T10:24:20;12.30;;;5.40;;
71637;SDS011;59485;43.542;-5.676;2023-05-08T10:26:51;15.82;;;5.43;;
71637;SDS011;59485;43.542;-5.676;2023-05-08T10:29:27;16.25;;;5.47;;
71637;SDS011;59485;43.542;-5.676;2023-05-08T10:31:58;14.23;;;5.00;;
71637;SDS011;59485;43.542;-5.676;2023-05-08T10:34:25;17.50;;;7.65;;
71637;SDS011;59485;43.542;-5.676;2023-05-08T10:36:52;13.57;;;5.17;;
71637;SDS011;59485;43.542;-5.676;2023-05-08T10:39:18;12.55;;;4.07;;
71637;SDS011;59485;43.542;-5.676;2023-05-08T10:41:45;10.07;;;2.78;;
71637;SDS011;59485;43.542;-5.676;2023-05-08T10:44:12;9.20;;;2.72;;
71637;SDS011;59485;43.542;-5.676;2023-05-08T10:57:29;10.25;;;3.88;;
71637;SDS011;59485;43.542;-5.676;2023-05-08T10:59:55;12.60;;;3.38;;
71637;SDS011;59485;43.542;-5.676;2023-05-08T11:02:27;12.53;;;3.20;;
71637;SDS011;59485;43.542;-5.676;2023-05-08T11:05:12;9.68;;;2.92;;
71637;SDS011;59485;43.542;-5.676;2023-05-08T11:07:54;9.90;;;3.17;;
71637;SDS011;59485;43.542;-5.676;2023-05-08T11:10:21;13.10;;;3.17;;
71637;SDS011;59485;43.542;-5.676;2023-05-08T11:12:55;13.60;;;3.90;;
71637;SDS011;59485;43.542;-5.676;2023-05-08T11:15:34;11.95;;;3.65;;
71637;SDS011;59485;43.542;-5.676;2023-05-08T11:18:08;11.18;;;4.57;;
71637;SDS011;59485;43.542;-5.676;2023-05-08T11:20:50;16.48;;;6.63;;
71637;SDS011;59485;43.542;-5.676;2023-05-08T11:23:36;14.80;;;6.70;;
71637;SDS011;59485;43.542;-5.676;2023-05-08T11:26:06;18.27;;;7.70;;
71637;SDS011;59485;43.542;-5.676;2023-05-08T11:28:39;20.98;;;8.13;;
71637;SDS011;59485;43.542;-5.676;2023-05-08T11:31:17;20.48;;;7.43;;
71637;SDS011;59485;43.542;-5.676;2023-05-08T11:33:42;19.00;;;7.57;;
71637;SDS011;59485;43.542;-5.676;2023-05-08T11:36:15;16.43;;;7.80;;
71637;SDS011;59485;43.542;-5.676;2023-05-08T11:38:42;19.20;;;7.28;;
71637;SDS011;59485;43.542;-5.676;2023-05-08T11:41:28;19.63;;;7.32;;
71637;SDS011;59485;43.542;-5.676;2023-05-08T11:43:57;18.30;;;6.33;;
71637;SDS011;59485;43.542;-5.676;2023-05-08T11:46:34;15.90;;;6.40;;
71637;SDS011;59485;43.542;-5.676;2023-05-08T11:49:00;17.08;;;7.40;;
71637;SDS011;59485;43.542;-5.676;2023-05-08T11:51:28;18.10;;;6.43;;
71637;SDS011;59485;43.542;-5.676;2023-05-08T11:53:56;16.65;;;6.25;;
71637;SDS011;59485;43.542;-5.676;2023-05-08T11:56:23;19.85;;;6.78;;
71637;SDS011;59485;43.542;-5.676;2023-05-08T11:58:58;17.77;;;6.38;;
71637;SDS011;59485;43.542;-5.676;2023-05-08T12:01:26;16.27;;;6.17;;
71637;SDS011;59485;43.542;-5.676;2023-05-08T12:04:01;14.65;;;5.38;;
71637;SDS011;59485;43.542;-5.676;2023-05-08T12:06:28;15.15;;;5.55;;
71637;SDS011;59485;43.542;-5.676;2023-05-08T12:08:56;12.47;;;5.60;;
71637;SDS011;59485;43.542;-5.676;2023-05-08T12:11:23;18.33;;;5.70;;
71637;SDS011;59485;43.542;-5.676;2023-05-08T12:13:52;17.23;;;6.20;;
71637;SDS011;59485;43.542;-5.676;2023-05-08T12:16:18;14.65;;;5.22;;
71637;SDS011;59485;43.542;-5.676;2023-05-08T12:18:48;16.70;;;5.50;;
71637;SDS011;59485;43.542;-5.676;2023-05-08T12:21:15;17.40;;;5.20;;
71637;SDS011;59485;43.542;-5.676;2023-05-08T12:23:45;15.82;;;5.28;;
71637;SDS011;59485;43.542;-5.676;2023-05-08T12:26:11;14.85;;;6.75;;
71637;SDS011;59485;43.542;-5.676;2023-05-08T12:28:37;16.10;;;5.67;;
71637;SDS011;59485;43.542;-5.676;2023-05-08T12:31:04;15.27;;;5.20;;
71637;SDS011;59485;43.542;-5.676;2023-05-08T12:33:31;18.52;;;7.28;;
71637;SDS011;59485;43.542;-5.676;2023-05-08T12:35:58;17.58;;;9.05;;
71637;SDS011;59485;43.542;-5.676;2023-05-08T12:38:25;24.08;;;10.43;;
71637;SDS011;59485;43.542;-5.676;2023-05-08T12:40:51;21.80;;;11.00;;
71637;SDS011;59485;43.542;-5.676;2023-05-08T12:43:19;20.77;;;8.97;;
71637;SDS011;59485;43.542;-5.676;2023-05-08T12:45:45;22.73;;;9.85;;
71637;SDS011;59485;43.542;-5.676;2023-05-08T12:48:13;18.07;;;8.80;;
71637;SDS011;59485;43.542;-5.676;2023-05-08T12:50:43;22.30;;;9.93;;
71637;SDS011;59485;43.542;-5.676;2023-05-08T12:53:16;21.55;;;10.60;;
71637;SDS011;59485;43.542;-5.676;2023-05-08T12:55:50;26.05;;;10.27;;
71637;SDS011;59485;43.542;-5.676;2023-05-08T12:58:18;21.13;;;10.02;;
71637;SDS011;59485;43.542;-5.676;2023-05-08T13:00:44;17.60;;;8.53;;
71637;SDS011;59485;43.542;-5.676;2023-05-08T13:03:13;17.55;;;9.40;;
71637;SDS011;59485;43.542;-5.676;2023-05-08T13:05:53;20.45;;;11.82;;
71637;SDS011;59485;43.542;-5.676;2023-05-08T13:08:19;23.63;;;10.50;;
71637;SDS011;59485;43.542;-5.676;2023-05-08T13:10:53;22.63;;;10.82;;
71637;SDS011;59485;43.542;-5.676;2023-05-08T13:13:20;23.40;;;10.23;;
71637;SDS011;59485;43.542;-5.676;2023-05-08T13:15:48;19.58;;;9.80;;
71637;SDS011;59485;43.542;-5.676;2023-05-08T13:18:14;17.23;;;8.15;;
71637;SDS011;59485;43.542;-5.676;2023-05-08T13:20:40;12.93;;;7.15;;
71637;SDS011;59485;43.542;-5.676;2023-05-08T13:23:07;18.50;;;6.78;;
71637;SDS011;59485;43.542;-5.676;2023-05-08T13:25:34;16.90;;;7.07;;
71637;SDS011;59485;43.542;-5.676;2023-05-08T13:28:00;12.48;;;6.20;;
71637;SDS011;59485;43.542;-5.676;2023-05-08T13:30:26;18.13;;;6.38;;
71637;SDS011;59485;43.542;-5.676;2023-05-08T13:32:52;14.93;;;6.13;;
71637;SDS011;59485;43.542;-5.676;2023-05-08T13:35:18;11.82;;;4.65;;
71637;SDS011;59485;43.542;-5.676;2023-05-08T13:37:44;15.50;;;4.25;;
71637;SDS011;59485;43.542;-5.676;2023-05-08T13:40:10;13.03;;;3.30;;
71637;SDS011;59485;43.542;-5.676;2023-05-08T13:42:36;11.90;;;3.17;;
71637;SDS011;59485;43.542;-5.676;2023-05-08T13:45:05;10.63;;;3.25;;
71637;SDS011;59485;43.542;-5.676;2023-05-08T13:47:32;11.02;;;3.55;;
71637;SDS011;59485;43.542;-5.676;2023-05-08T13:49:58;9.60;;;3.20;;
71637;SDS011;59485;43.542;-5.676;2023-05-08T13:52:23;11.05;;;3.90;;
71637;SDS011;59485;43.542;-5.676;2023-05-08T13:54:49;9.10;;;2.60;;
71637;SDS011;59485;43.542;-5.676;2023-05-08T13:57:15;8.48;;;2.40;;
71637;SDS011;59485;43.542;-5.676;2023-05-08T13:59:41;9.00;;;2.33;;
71637;SDS011;59485;43.542;-5.676;2023-05-08T14:02:06;8.27;;;2.22;;
71637;SDS011;59485;43.542;-5.676;2023-05-08T14:04:32;8.90;;;2.23;;
71637;SDS011;59485;43.542;-5.676;2023-05-08T14:06:57;9.20;;;1.90;;
71637;SDS011;59485;43.542;-5.676;2023-05-08T14:09:23;8.35;;;2.55;;
71637;SDS011;59485;43.542;-5.676;2023-05-08T14:11:49;8.77;;;1.97;;
71637;SDS011;59485;43.542;-5.676;2023-05-08T14:14:14;9.77;;;2.03;;
71637;SDS011;59485;43.542;-5.676;2023-05-08T14:16:40;8.83;;;2.60;;
71637;SDS011;59485;43.542;-5.676;2023-05-08T14:19:05;9.57;;;2.22;;
71637;SDS011;59485;43.542;-5.676;2023-05-08T14:21:31;6.23;;;1.60;;
71637;SDS011;59485;43.542;-5.676;2023-05-08T14:23:56;7.47;;;1.87;;
71637;SDS011;59485;43.542;-5.676;2023-05-08T14:26:22;9.10;;;2.10;;
71637;SDS011;59485;43.542;-5.676;2023-05-08T14:28:47;9.27;;;1.67;;
71637;SDS011;59485;43.542;-5.676;2023-05-08T14:31:13;10.07;;;1.87;;
71637;SDS011;59485;43.542;-5.676;2023-05-08T14:33:39;7.63;;;1.70;;
71637;SDS011;59485;43.542;-5.676;2023-05-08T14:36:04;11.50;;;2.60;;
71637;SDS011;59485;43.542;-5.676;2023-05-08T14:38:30;6.55;;;2.05;;
71637;SDS011;59485;43.542;-5.676;2023-05-08T14:40:56;10.48;;;2.10;;
71637;SDS011;59485;43.542;-5.676;2023-05-08T14:43:21;9.87;;;1.97;;
71637;SDS011;59485;43.542;-5.676;2023-05-08T14:45:47;8.40;;;1.77;;
71637;SDS011;59485;43.542;-5.676;2023-05-08T14:48:13;8.00;;;2.13;;
71637;SDS011;59485;43.542;-5.676;2023-05-08T14:50:39;8.50;;;2.03;;
71637;SDS011;59485;43.542;-5.676;2023-05-08T14:53:04;10.70;;;2.60;;
71637;SDS011;59485;43.542;-5.676;2023-05-08T14:55:30;9.93;;;2.10;;
71637;SDS011;59485;43.542;-5.676;2023-05-08T14:57:55;9.95;;;2.25;;
71637;SDS011;59485;43.542;-5.676;2023-05-08T15:00:21;9.90;;;2.10;;
71637;SDS011;59485;43.542;-5.676;2023-05-08T15:02:47;8.80;;;1.95;;
71637;SDS011;59485;43.542;-5.676;2023-05-08T15:05:13;11.07;;;2.20;;
71637;SDS011;59485;43.542;-5.676;2023-05-08T15:07:39;10.17;;;1.77;;
71637;SDS011;59485;43.542;-5.676;2023-05-08T15:10:05;9.73;;;2.10;;
71637;SDS011;59485;43.542;-5.676;2023-05-08T15:12:31;9.40;;;2.10;;